Relevés stations proches


LFBH - La Rochelle, Charente Maritime
Mise à jour: 10/12/2018 09:30
Peu nuageux
Peu nuageux
 Wind from N
Vent: N 7 km/h
Température: 10°C
Refroidissement éolien: 9°C
Point de rosée: 7°C
Humidité: 82%
Baromètre: 1033 hPa
Ciel: Peu nuageux
Visibilité: 10 km
Détails plafond nuageux: Peu nuageux 1372 m
2018/12/10 09:30 LFBH 100930Z AUTO 36004KT 340V040 9999 FEW045 10/07 Q1033 NOSIG
LFBC - Cognac, Charente
Mise à jour: 10/12/2018 09:30
Couvert
Couvert
 Wind from calm
Vent: Force 0 Beaufort - Calme
Température: 9°C
Point de rosée: 9°C
Humidité: 100%
Baromètre: 1033 hPa
Ciel: Couvert
Visibilité: 10 km
Détails plafond nuageux: Couvert 1463 m
2018/12/10 09:30 LFBC 100930Z AUTO 00000KT 9999 OVC048 09/09 Q1033 NOSIG
 
LFBU - Angoulème, Charente
Mise à jour: 10/12/2018 09:30

 Wind from varies
Vent: varies 4 km/h
Visibilité: 1 km
2018/12/10 09:30 LFBU 100930Z AUTO VRB02KT 0900 0400 R28/1200D FG BKN006 OVC013 06/05 Q1033 BECMG 9999 NSW BKN013
LFRI - La Roche sur Yon, Vendée
Mise à jour: 10/12/2018 09:30
Clair
Clair
 Wind from O
Vent: O 6 km/h
Température: 7°C
Point de rosée: 7°C
Humidité: 100%
Baromètre: 1032 hPa
Ciel: Clair
Visibilité: Supérieure à 10 km
2018/12/10 09:30 LFRI 100930Z AUTO 27003KT CAVOK 07/07 Q1032 NOSIG
 
LFBI - Poitiers, Vienne
Mise à jour: 10/12/2018 09:30
Clair
Clair
 Wind from O
Vent: O 9 km/h
Température: 7°C
Refroidissement éolien: 6°C
Point de rosée: 6°C
Humidité: 93%
Baromètre: 1032 hPa
Ciel: Clair
Visibilité: Supérieure à 10 km
2018/12/10 09:30 LFBI 100930Z AUTO 28005KT 250V310 CAVOK 07/06 Q1032 NOSIG
LFRS - Nantes, Loire Atlantique
Mise à jour: 10/12/2018 09:30
Clair
Clair
 Wind from ONO
Vent: ONO 7 km/h
Température: 7°C
Refroidissement éolien: 6°C
Point de rosée: 6°C
Humidité: 93%
Baromètre: 1032 hPa
Ciel: Clair
Visibilité: Supérieure à 10 km
2018/12/10 09:30 LFRS 100930Z AUTO 29004KT CAVOK 07/06 Q1032 NOSIG
 
LFBD - Bordeaux, Gironde
Mise à jour: 10/12/2018 09:30
Nuageux
Nuageux
 Wind from OSO
Vent: OSO 6 km/h
Température: 9°C
Point de rosée: 8°C
Humidité: 94%
Baromètre: 1033 hPa
Ciel: Nuageux
Visibilité: 10 km
Détails plafond nuageux: Nuageux 1494 m
2018/12/10 09:30 LFBD 100930Z AUTO 25003KT 9999 BKN049 09/08 Q1033 NOSIG
LFBL - Limoges, Haute Vienne
Mise à jour: 10/12/2018 09:30

 Wind from O
Vent: O 11 km/h
Visibilité: 2 km
2018/12/10 09:30 LFBL 100930Z AUTO 27006KT 1700 1000 R21/2700D R03/1900D BR OVC002 05/05 Q1031 BECMG 9999 NSW BKN025